createdAt,value
2023-05-01T00:01:05.324Z,3.35
2023-05-01T00:03:33.999Z,3.70
2023-05-01T00:06:04.987Z,3.83
2023-05-01T00:08:33.462Z,3.40
2023-05-01T00:11:04.722Z,3.67
2023-05-01T00:13:34.419Z,3.63
2023-05-01T00:16:08.895Z,3.72
2023-05-01T00:18:37.182Z,4.07
2023-05-01T00:21:05.551Z,4.38
2023-05-01T00:23:33.818Z,3.80
2023-05-01T00:26:01.913Z,4.90
2023-05-01T00:28:30.272Z,4.47
2023-05-01T00:31:02.824Z,5.03
2023-05-01T00:33:31.085Z,4.35
2023-05-01T00:35:59.243Z,4.40
2023-05-01T00:38:27.451Z,3.67
2023-05-01T00:40:56.595Z,4.07
2023-05-01T00:43:24.733Z,3.80
2023-05-01T00:45:56.180Z,3.78
2023-05-01T00:48:26.001Z,4.28
2023-05-01T00:50:55.696Z,5.07
2023-05-01T00:53:26.356Z,5.88
2023-05-01T00:55:56.689Z,7.80
2023-05-01T00:58:24.915Z,8.57
2023-05-01T01:00:53.734Z,8.18
2023-05-01T01:03:21.932Z,7.88
2023-05-01T01:05:56.842Z,6.93
2023-05-01T01:08:32.540Z,5.93
2023-05-01T01:11:13.955Z,7.28
2023-05-01T01:13:51.895Z,6.45
2023-05-01T01:16:29.485Z,5.13
2023-05-01T01:19:05.063Z,6.10
2023-05-01T01:21:39.467Z,5.00
2023-05-01T01:24:48.488Z,4.28
2023-05-01T01:27:48.296Z,4.20
2023-05-01T01:30:43.844Z,4.10
2023-05-01T01:33:40.899Z,3.60
2023-05-01T01:36:17.254Z,3.83
2023-05-01T01:38:48.174Z,3.50
2023-05-01T01:41:22.150Z,4.00
2023-05-01T01:43:57.034Z,3.45
2023-05-01T01:46:26.923Z,3.67
2023-05-01T01:48:59.110Z,3.80
2023-05-01T01:51:29.930Z,3.90
2023-05-01T01:54:01.780Z,4.10
2023-05-01T01:56:33.116Z,4.70
2023-05-01T01:59:03.121Z,4.88
2023-05-01T02:01:31.918Z,5.07
2023-05-01T02:04:02.154Z,4.63
2023-05-01T02:06:32.831Z,5.47
2023-05-01T02:09:02.941Z,5.25
2023-05-01T02:11:32.571Z,7.43
2023-05-01T02:14:03.731Z,7.32
2023-05-01T02:16:34.922Z,9.48
2023-05-01T02:19:06.865Z,9.52
2023-05-01T02:21:36.936Z,10.90
2023-05-01T02:24:06.995Z,13.15
2023-05-01T02:26:52.712Z,14.25
2023-05-01T02:29:20.919Z,18.65
2023-05-01T02:31:49.378Z,25.67
2023-05-01T02:34:19.026Z,31.48
2023-05-01T02:36:47.029Z,36.28
2023-05-01T02:39:15.289Z,38.72
2023-05-01T02:41:44.117Z,38.88
2023-05-01T02:44:13.837Z,39.90
2023-05-01T02:46:46.488Z,40.78
2023-05-01T02:49:16.225Z,41.92
2023-05-01T02:51:47.480Z,42.28
2023-05-01T02:54:16.475Z,41.17
2023-05-01T02:56:44.672Z,41.63
2023-05-01T02:59:12.964Z,39.97
2023-05-01T03:01:41.174Z,38.78
2023-05-01T03:04:09.453Z,38.20
2023-05-01T03:06:37.827Z,37.72
2023-05-01T03:09:08.206Z,37.40
2023-05-01T03:11:36.274Z,39.13
2023-05-01T03:14:07.622Z,40.22
2023-05-01T03:16:36.193Z,39.40
2023-05-01T03:19:05.463Z,35.38
2023-05-01T03:21:34.176Z,27.85
2023-05-01T03:24:02.642Z,21.58
2023-05-01T03:26:33.189Z,16.20
2023-05-01T03:29:01.281Z,11.77
2023-05-01T03:31:29.499Z,9.48
2023-05-01T03:34:00.809Z,8.20
2023-05-01T03:36:29.336Z,8.23
2023-05-01T03:38:57.880Z,7.65
2023-05-01T03:41:26.298Z,8.38
2023-05-01T03:43:55.729Z,7.20
2023-05-01T03:46:24.461Z,5.72
2023-05-01T03:48:52.820Z,5.43
2023-05-01T03:51:21.018Z,5.80
2023-05-01T03:53:49.230Z,6.25
2023-05-01T03:56:17.468Z,8.00
2023-05-01T03:58:45.496Z,11.25
2023-05-01T04:01:15.445Z,15.68
2023-05-01T04:03:44.074Z,13.98
2023-05-01T04:06:12.694Z,10.10
2023-05-01T04:08:41.128Z,9.18
2023-05-01T04:11:09.363Z,9.20
2023-05-01T04:13:37.647Z,10.38
2023-05-01T04:16:06.866Z,11.02
2023-05-01T04:18:36.895Z,12.73
2023-05-01T04:21:07.049Z,9.77
2023-05-01T04:23:35.283Z,6.47
2023-05-01T04:26:04.188Z,6.88
2023-05-01T04:28:32.301Z,7.65
2023-05-01T04:31:00.884Z,8.48
2023-05-01T04:33:29.201Z,8.23
2023-05-01T04:36:01.390Z,7.53
2023-05-01T04:38:31.284Z,7.15
2023-05-01T04:40:59.642Z,7.72
2023-05-01T04:43:27.695Z,8.63
2023-05-01T04:45:56.040Z,9.68
2023-05-01T04:48:24.171Z,8.15
2023-05-01T04:50:52.449Z,6.20
2023-05-01T04:53:22.094Z,5.45
2023-05-01T04:55:50.375Z,4.82
2023-05-01T04:58:18.479Z,5.15
2023-05-01T05:00:46.594Z,4.50
2023-05-01T05:03:15.667Z,5.05
2023-05-01T05:05:46.182Z,4.65
2023-05-01T05:08:14.304Z,4.65
2023-05-01T05:10:44.008Z,5.07
2023-05-01T05:13:14.288Z,5.13
2023-05-01T05:15:42.629Z,5.70
2023-05-01T05:18:10.954Z,4.70
2023-05-01T05:20:40.740Z,4.97
2023-05-01T05:23:09.065Z,4.30
2023-05-01T05:25:37.394Z,4.72
2023-05-01T05:28:07.093Z,4.53
2023-05-01T05:30:35.268Z,4.55
2023-05-01T05:33:03.701Z,4.18
2023-05-01T05:35:32.248Z,3.70
2023-05-01T05:38:00.589Z,3.88
2023-05-01T05:40:28.604Z,4.03
2023-05-01T05:42:58.489Z,4.50
2023-05-01T05:45:28.049Z,4.32
2023-05-01T05:47:56.702Z,4.28
2023-05-01T05:50:24.861Z,4.25
2023-05-01T05:52:53.178Z,4.90
2023-05-01T05:55:21.280Z,4.82
2023-05-01T05:57:49.719Z,4.70
2023-05-01T06:00:19.161Z,4.80
2023-05-01T06:02:48.994Z,4.75
2023-05-01T06:05:17.325Z,4.78
2023-05-01T06:07:45.608Z,4.57
2023-05-01T06:10:14.178Z,5.35
2023-05-01T06:12:44.991Z,5.57
2023-05-01T06:15:17.386Z,5.13
2023-05-01T06:17:45.842Z,4.78
2023-05-01T06:20:15.649Z,4.60
2023-05-01T06:22:43.675Z,4.88
2023-05-01T06:25:11.887Z,4.88
2023-05-01T06:27:39.995Z,5.00
2023-05-01T06:30:13.834Z,4.57
2023-05-01T06:32:43.738Z,4.57
2023-05-01T06:35:17.558Z,4.55
2023-05-01T06:37:46.189Z,4.80
2023-05-01T06:40:14.493Z,4.70
2023-05-01T06:42:43.045Z,5.10
2023-05-01T06:45:11.204Z,4.15
2023-05-01T06:47:39.558Z,4.88
2023-05-01T06:50:09.179Z,4.75
2023-05-01T06:52:43.557Z,4.53
2023-05-01T06:55:12.538Z,5.00
2023-05-01T06:57:44.234Z,4.07
2023-05-01T07:00:14.048Z,4.93
2023-05-01T07:02:42.570Z,4.95
2023-05-01T07:05:10.970Z,5.10
2023-05-01T07:07:47.268Z,4.90
2023-05-01T07:10:18.717Z,4.78
2023-05-01T07:12:47.132Z,4.78
2023-05-01T07:15:16.482Z,5.05
2023-05-01T07:17:45.713Z,4.70
2023-05-01T07:20:14.051Z,4.93
2023-05-01T07:22:43.639Z,5.00
2023-05-01T07:25:11.819Z,5.30
2023-05-01T07:27:39.902Z,4.85
2023-05-01T07:30:09.893Z,4.72
2023-05-01T07:32:37.965Z,6.13
2023-05-01T07:35:06.933Z,5.53
2023-05-01T07:37:35.093Z,5.28
2023-05-01T07:40:05.282Z,5.35
2023-05-01T07:42:33.667Z,4.72
2023-05-01T07:45:01.809Z,4.90
2023-05-01T07:47:30.325Z,4.85
2023-05-01T07:49:58.893Z,5.30
2023-05-01T07:52:27.397Z,4.57
2023-05-01T07:54:55.850Z,4.93
2023-05-01T07:57:25.235Z,4.38
2023-05-01T07:59:57.079Z,5.22
2023-05-01T08:02:28.448Z,5.20
2023-05-01T08:04:56.943Z,5.00
2023-05-01T08:07:25.422Z,5.35
2023-05-01T08:09:56.364Z,4.95
2023-05-01T08:12:28.292Z,5.18
2023-05-01T08:14:56.832Z,4.68
2023-05-01T08:17:24.888Z,4.50
2023-05-01T08:19:57.008Z,5.45
2023-05-01T08:22:25.522Z,5.03
2023-05-01T08:24:53.634Z,5.40
2023-05-01T08:27:21.902Z,5.50
2023-05-01T08:29:51.634Z,4.90
2023-05-01T08:32:20.009Z,4.72
2023-05-01T08:34:48.220Z,5.43
2023-05-01T08:37:19.013Z,5.85
2023-05-01T08:39:47.205Z,5.05
2023-05-01T08:42:15.796Z,5.13
2023-05-01T08:44:44.400Z,5.40
2023-05-01T08:47:17.850Z,5.43
2023-05-01T08:49:46.656Z,5.55
2023-05-01T08:52:16.393Z,5.72
2023-05-01T08:54:46.975Z,5.80
2023-05-01T08:57:16.836Z,6.07
2023-05-01T08:59:46.995Z,5.75
2023-05-01T09:02:17.158Z,5.90
2023-05-01T09:04:46.202Z,5.55
2023-05-01T09:07:14.313Z,6.30
2023-05-01T09:09:42.716Z,6.50
2023-05-01T09:12:19.318Z,6.00
2023-05-01T09:14:47.555Z,6.65
2023-05-01T09:17:17.326Z,6.90
2023-05-01T09:19:47.270Z,7.40
2023-05-01T09:22:16.506Z,7.07
2023-05-01T09:24:44.690Z,7.72
2023-05-01T09:27:13.994Z,7.88
2023-05-01T09:29:46.676Z,8.40
2023-05-01T09:32:21.272Z,9.00
2023-05-01T09:34:50.631Z,11.85
2023-05-01T09:37:29.937Z,12.93
2023-05-01T09:40:09.406Z,18.77
2023-05-01T09:42:38.945Z,29.92
2023-05-01T09:45:14.539Z,39.70
2023-05-01T09:47:44.960Z,40.63
2023-05-01T09:50:30.414Z,40.88
2023-05-01T09:52:58.796Z,39.78
2023-05-01T09:55:26.836Z,41.42
2023-05-01T09:57:55.013Z,43.05
2023-05-01T10:00:23.361Z,44.92
2023-05-01T10:02:55.736Z,44.97
2023-05-01T10:05:24.961Z,45.67
2023-05-01T10:08:01.545Z,46.58
2023-05-01T10:10:29.853Z,47.05
2023-05-01T10:13:14.056Z,47.67
2023-05-01T10:15:42.436Z,48.20
2023-05-01T10:18:12.416Z,47.13
2023-05-01T10:20:40.645Z,46.55
2023-05-01T10:23:09.287Z,49.00
2023-05-01T10:25:38.374Z,49.03
2023-05-01T10:28:07.493Z,49.75
2023-05-01T10:30:39.413Z,49.42
2023-05-01T10:33:07.773Z,49.05
2023-05-01T10:35:40.399Z,49.35
2023-05-01T10:38:11.063Z,47.78
2023-05-01T10:40:46.861Z,49.67
2023-05-01T10:43:17.412Z,49.03
2023-05-01T10:45:45.798Z,49.45
2023-05-01T10:48:14.259Z,50.10
2023-05-01T10:51:13.143Z,50.38
2023-05-01T10:53:42.496Z,48.95
2023-05-01T10:56:43.031Z,49.55
2023-05-01T10:59:12.947Z,49.08
2023-05-01T11:01:43.251Z,49.17
2023-05-01T11:04:44.892Z,49.40
2023-05-01T11:07:21.077Z,48.92
2023-05-01T11:09:55.019Z,48.58
2023-05-01T11:12:54.851Z,48.47
2023-05-01T11:15:30.713Z,48.20
2023-05-01T11:17:59.623Z,47.13
2023-05-01T11:20:47.663Z,46.83
2023-05-01T11:23:21.402Z,46.85
2023-05-01T11:25:53.823Z,46.97
2023-05-01T11:28:25.198Z,46.80
2023-05-01T11:30:54.334Z,48.05
2023-05-01T11:33:26.034Z,51.08
2023-05-01T11:36:01.276Z,50.85
2023-05-01T11:38:31.123Z,46.03
2023-05-01T11:41:01.620Z,44.72
2023-05-01T11:43:29.833Z,46.33
2023-05-01T11:46:04.199Z,41.95
2023-05-01T11:48:33.029Z,31.27
2023-05-01T11:51:01.271Z,30.58
2023-05-01T11:53:31.957Z,28.58
2023-05-01T11:56:01.222Z,17.77
2023-05-01T11:58:34.775Z,20.05
2023-05-01T12:01:03.301Z,19.63
2023-05-01T12:03:45.375Z,14.77
2023-05-01T12:06:15.438Z,10.05
2023-05-01T12:08:50.507Z,16.88
2023-05-01T12:11:20.672Z,8.90
2023-05-01T12:13:50.415Z,7.70
2023-05-01T12:16:19.029Z,8.75
2023-05-01T12:18:48.419Z,6.50
2023-05-01T12:21:17.958Z,5.50
2023-05-01T12:23:47.651Z,6.20
2023-05-01T12:26:19.852Z,5.72
2023-05-01T12:29:02.669Z,6.80
2023-05-01T12:31:31.608Z,5.43
2023-05-01T12:34:01.173Z,5.72
2023-05-01T12:36:31.763Z,5.78
2023-05-01T12:39:02.461Z,5.90
2023-05-01T12:41:37.821Z,6.22
2023-05-01T12:44:19.045Z,5.38
2023-05-01T12:46:54.210Z,5.85
2023-05-01T12:49:26.359Z,5.50
2023-05-01T12:51:56.292Z,5.43
2023-05-01T12:54:28.357Z,5.43
2023-05-01T12:57:09.286Z,5.20
2023-05-01T12:59:38.570Z,5.00
2023-05-01T13:02:08.525Z,5.07
2023-05-01T13:04:37.352Z,5.00
2023-05-01T13:07:12.922Z,5.07
2023-05-01T13:09:57.938Z,5.07
2023-05-01T13:12:26.608Z,4.97
2023-05-01T13:14:55.551Z,4.93
2023-05-01T13:17:26.148Z,5.20
2023-05-01T13:19:56.014Z,4.72
2023-05-01T13:22:32.662Z,5.07
2023-05-01T13:25:06.451Z,5.22
2023-05-01T13:27:34.614Z,5.15
2023-05-01T13:30:02.867Z,5.45
2023-05-01T13:32:31.076Z,5.47
2023-05-01T13:35:03.264Z,5.43
2023-05-01T13:37:32.595Z,5.15
2023-05-01T13:40:04.420Z,5.40
2023-05-01T13:42:32.802Z,5.10
2023-05-01T13:45:06.000Z,5.22
2023-05-01T13:47:34.277Z,5.25
2023-05-01T13:50:02.611Z,5.38
2023-05-01T13:52:31.482Z,5.47
2023-05-01T13:55:02.839Z,5.78
2023-05-01T13:57:33.120Z,5.10
2023-05-01T14:00:01.523Z,5.28
2023-05-01T14:02:31.093Z,5.78
2023-05-01T14:05:00.870Z,4.45
2023-05-01T14:07:29.462Z,4.82
2023-05-01T14:10:00.984Z,4.63
2023-05-01T14:12:34.007Z,4.88
2023-05-01T14:15:03.246Z,4.93
2023-05-01T14:17:33.199Z,5.00
2023-05-01T14:20:02.271Z,4.80
2023-05-01T14:22:31.392Z,5.00
2023-05-01T14:24:59.954Z,5.35
2023-05-01T14:27:30.254Z,5.35
2023-05-01T14:29:58.475Z,5.25
2023-05-01T14:32:28.461Z,5.35
2023-05-01T14:34:57.343Z,6.07
2023-05-01T14:37:27.773Z,6.55
2023-05-01T14:39:56.699Z,6.65
2023-05-01T14:42:24.947Z,5.95
2023-05-01T14:44:54.564Z,5.22
2023-05-01T14:47:23.365Z,5.57
2023-05-01T14:49:54.480Z,6.55
2023-05-01T14:52:22.736Z,7.32
2023-05-01T14:54:53.154Z,7.40
2023-05-01T14:57:21.331Z,8.02
2023-05-01T14:59:49.377Z,7.95
2023-05-01T15:02:19.034Z,8.02
2023-05-01T15:04:47.525Z,8.35
2023-05-01T15:07:16.136Z,8.85
2023-05-01T15:09:46.504Z,7.70
2023-05-01T15:12:15.523Z,8.25
2023-05-01T15:14:43.904Z,8.70
2023-05-01T15:17:12.371Z,9.27
2023-05-01T15:19:41.865Z,9.80
2023-05-01T15:22:10.236Z,10.18
2023-05-01T15:24:39.265Z,9.77
2023-05-01T15:27:08.000Z,10.15
2023-05-01T15:29:36.284Z,9.18
2023-05-01T15:32:11.856Z,9.60
2023-05-01T15:34:42.985Z,9.40
2023-05-01T15:37:11.148Z,9.88
2023-05-01T15:39:40.456Z,9.45
2023-05-01T15:42:09.967Z,9.80
2023-05-01T15:44:38.185Z,10.18
2023-05-01T15:47:06.620Z,10.27
2023-05-01T15:49:34.774Z,10.90
2023-05-01T15:52:04.532Z,10.85
2023-05-01T15:54:32.859Z,10.20
2023-05-01T15:57:02.273Z,10.68
2023-05-01T15:59:30.841Z,10.55
2023-05-01T16:01:59.251Z,11.95
2023-05-01T16:04:29.434Z,11.77
2023-05-01T16:06:59.882Z,11.77
2023-05-01T16:09:32.354Z,12.52
2023-05-01T16:12:03.461Z,10.68
2023-05-01T16:14:32.369Z,12.35
2023-05-01T16:17:04.322Z,12.25
2023-05-01T16:19:32.748Z,12.07
2023-05-01T16:22:04.800Z,12.18
2023-05-01T16:24:35.300Z,12.13
2023-05-01T16:27:03.706Z,12.60
2023-05-01T16:29:34.379Z,12.93
2023-05-01T16:32:02.501Z,12.70
2023-05-01T16:34:30.659Z,12.07
2023-05-01T16:36:58.999Z,13.07
2023-05-01T16:39:27.117Z,13.68
2023-05-01T16:41:57.147Z,13.00
2023-05-01T16:44:25.475Z,12.38
2023-05-01T16:46:55.225Z,11.82
2023-05-01T16:49:26.221Z,12.30
2023-05-01T16:51:56.828Z,12.73
2023-05-01T16:54:26.086Z,12.38
2023-05-01T16:56:54.385Z,13.63
2023-05-01T16:59:24.353Z,13.68
2023-05-01T17:01:52.786Z,14.20
2023-05-01T17:04:21.126Z,14.57
2023-05-01T17:06:49.759Z,14.82
2023-05-01T17:09:17.945Z,16.38
2023-05-01T17:11:46.408Z,15.40
2023-05-01T17:14:17.286Z,16.23
2023-05-01T17:16:48.643Z,16.35
2023-05-01T17:19:18.324Z,16.20
2023-05-01T17:21:46.422Z,17.65
2023-05-01T17:24:14.566Z,16.10
2023-05-01T17:26:45.235Z,16.75
2023-05-01T17:29:15.509Z,16.13
2023-05-01T17:31:43.996Z,17.02
2023-05-01T17:34:16.399Z,16.88
2023-05-01T17:36:46.895Z,16.85
2023-05-01T17:39:15.514Z,16.80
2023-05-01T17:41:44.017Z,16.70
2023-05-01T17:44:14.452Z,16.77
2023-05-01T17:46:45.774Z,15.75
2023-05-01T17:49:15.672Z,16.00
2023-05-01T17:51:46.656Z,15.82
2023-05-01T17:54:26.387Z,16.48
2023-05-01T17:56:56.250Z,15.73
2023-05-01T17:59:30.755Z,16.20
2023-05-01T18:01:59.771Z,16.33
2023-05-01T18:04:30.048Z,16.90
2023-05-01T18:07:04.308Z,17.88
2023-05-01T18:09:32.855Z,17.48
2023-05-01T18:12:04.640Z,17.42
2023-05-01T18:14:33.235Z,16.40
2023-05-01T18:17:01.556Z,15.52
2023-05-01T18:19:33.507Z,16.65
2023-05-01T18:22:03.823Z,17.27
2023-05-01T18:24:37.179Z,17.77
2023-05-01T18:27:05.799Z,19.52
2023-05-01T18:29:34.412Z,17.48
2023-05-01T18:32:07.170Z,19.88
2023-05-01T18:34:43.707Z,21.83
2023-05-01T18:37:13.862Z,24.15
2023-05-01T18:39:42.184Z,27.45
2023-05-01T18:42:11.980Z,32.92
2023-05-01T18:44:43.198Z,41.70
2023-05-01T18:47:14.578Z,45.30
2023-05-01T18:49:46.767Z,51.92
2023-05-01T18:52:18.532Z,56.60
2023-05-01T18:54:48.448Z,55.78
2023-05-01T18:57:19.972Z,55.45
2023-05-01T18:59:52.479Z,55.42
2023-05-01T19:02:20.821Z,56.20
2023-05-01T19:04:58.433Z,57.83
2023-05-01T19:07:27.263Z,57.05
2023-05-01T19:09:58.015Z,57.50
2023-05-01T19:12:26.512Z,56.05
2023-05-01T19:14:54.676Z,57.25
2023-05-01T19:17:22.855Z,57.22
2023-05-01T19:19:52.764Z,57.25
2023-05-01T19:22:23.183Z,55.83
2023-05-01T19:24:51.444Z,55.33
2023-05-01T19:27:22.699Z,55.30
2023-05-01T19:29:50.876Z,56.40
2023-05-01T19:32:23.209Z,55.65
2023-05-01T19:34:55.440Z,56.58
2023-05-01T19:37:23.716Z,55.17
2023-05-01T19:39:51.888Z,54.92
2023-05-01T19:42:20.286Z,54.75
2023-05-01T19:44:48.452Z,54.10
2023-05-01T19:47:16.755Z,53.55
2023-05-01T19:49:45.187Z,51.75
2023-05-01T19:52:14.811Z,52.10
2023-05-01T19:54:45.046Z,52.50
2023-05-01T19:57:13.982Z,50.03
2023-05-01T19:59:42.895Z,50.22
2023-05-01T20:02:11.503Z,49.08
2023-05-01T20:04:39.877Z,49.80
2023-05-01T20:07:08.312Z,48.28
2023-05-01T20:09:37.947Z,47.53
2023-05-01T20:12:06.664Z,48.05
2023-05-01T20:14:34.778Z,48.03
2023-05-01T20:17:04.446Z,48.20
2023-05-01T20:19:32.593Z,48.95
2023-05-01T20:22:00.730Z,48.50
2023-05-01T20:24:29.116Z,47.08
2023-05-01T20:26:59.433Z,46.28
2023-05-01T20:29:28.425Z,45.35
2023-05-01T20:31:56.807Z,45.20
2023-05-01T20:34:28.296Z,46.70
2023-05-01T20:36:56.707Z,48.13
2023-05-01T20:39:24.799Z,47.53
2023-05-01T20:41:53.062Z,48.60
2023-05-01T20:44:23.147Z,48.38
2023-05-01T20:46:51.800Z,47.90
2023-05-01T20:49:20.710Z,48.47
2023-05-01T20:51:49.248Z,46.83
2023-05-01T20:54:17.755Z,46.65
2023-05-01T20:56:45.961Z,47.67
2023-05-01T20:59:14.037Z,47.97
2023-05-01T21:01:43.730Z,46.47
2023-05-01T21:04:11.973Z,47.67
2023-05-01T21:06:40.563Z,47.40
2023-05-01T21:09:11.092Z,46.58
2023-05-01T21:11:43.901Z,47.83
2023-05-01T21:14:12.865Z,48.08
2023-05-01T21:16:44.100Z,46.85
2023-05-01T21:19:16.188Z,46.60
2023-05-01T21:21:44.760Z,45.97
2023-05-01T21:24:20.973Z,46.13
2023-05-01T21:26:49.212Z,46.80
2023-05-01T21:29:17.680Z,45.60
2023-05-01T21:31:46.112Z,45.65
2023-05-01T21:34:19.588Z,45.65
2023-05-01T21:36:49.365Z,46.50
2023-05-01T21:39:17.783Z,44.58
2023-05-01T21:41:49.431Z,44.33
2023-05-01T21:44:17.917Z,44.00
2023-05-01T21:46:46.267Z,43.03
2023-05-01T21:49:23.085Z,43.95
2023-05-01T21:51:51.124Z,44.17
2023-05-01T21:54:21.439Z,45.13
2023-05-01T21:56:49.776Z,45.90
2023-05-01T21:59:19.319Z,45.28
2023-05-01T22:01:47.442Z,45.35
2023-05-01T22:04:19.358Z,44.50
2023-05-01T22:06:47.616Z,44.50
2023-05-01T22:09:16.211Z,44.80
2023-05-01T22:11:44.430Z,44.47
2023-05-01T22:14:16.341Z,44.22
2023-05-01T22:16:44.718Z,43.55
2023-05-01T22:19:12.967Z,42.53
2023-05-01T22:21:42.915Z,43.08
2023-05-01T22:24:11.158Z,43.75
2023-05-01T22:26:39.269Z,42.42
2023-05-01T22:29:08.610Z,43.28
2023-05-01T22:31:36.854Z,42.20
2023-05-01T22:34:05.077Z,41.50
2023-05-01T22:36:33.123Z,41.88
2023-05-01T22:39:04.060Z,40.33
2023-05-01T22:41:33.080Z,42.35
2023-05-01T22:44:01.450Z,40.40
2023-05-01T22:46:29.724Z,41.38
2023-05-01T22:48:59.696Z,40.60
2023-05-01T22:51:28.261Z,41.30
2023-05-01T22:53:56.903Z,40.75
2023-05-01T22:56:27.558Z,40.38
2023-05-01T22:59:00.700Z,39.90
2023-05-01T23:01:29.011Z,39.40
2023-05-01T23:03:57.361Z,38.47
2023-05-01T23:06:25.775Z,38.78
2023-05-01T23:08:54.466Z,37.78
2023-05-01T23:11:23.458Z,37.58
2023-05-01T23:13:53.143Z,35.72
2023-05-01T23:16:21.383Z,37.95
2023-05-01T23:18:49.634Z,37.47
2023-05-01T23:21:19.220Z,36.22
2023-05-01T23:23:48.215Z,37.17
2023-05-01T23:26:24.802Z,37.70
2023-05-01T23:28:54.799Z,38.45
2023-05-01T23:31:26.158Z,38.40
2023-05-01T23:33:54.798Z,38.05
2023-05-01T23:36:23.518Z,37.85
2023-05-01T23:38:51.649Z,38.30
2023-05-01T23:41:20.040Z,37.70
2023-05-01T23:43:48.531Z,39.00
2023-05-01T23:46:18.199Z,39.30
2023-05-01T23:48:46.510Z,38.47
2023-05-01T23:51:14.832Z,39.45
2023-05-01T23:53:43.297Z,39.33
2023-05-01T23:56:11.649Z,39.75
2023-05-01T23:58:39.829Z,39.40
